sensor_id;sensor_type;location;lat;lon;timestamp;pressure;altitude;pressure_sealevel;temperature;humidity
63281;BME280;49406;51.044;3.766;2022-11-21T00:00:18;100787.43;;;6.66;100.00
63281;BME280;49406;51.044;3.766;2022-11-21T00:02:52;100786.76;;;6.66;100.00
63281;BME280;49406;51.044;3.766;2022-11-21T00:05:27;100784.46;;;6.65;100.00
63281;BME280;49406;51.044;3.766;2022-11-21T00:08:03;100794.89;;;6.58;100.00
63281;BME280;49406;51.044;3.766;2022-11-21T00:10:39;100798.69;;;6.64;100.00
63281;BME280;49406;51.044;3.766;2022-11-21T00:13:16;100795.50;;;6.70;100.00
63281;BME280;49406;51.044;3.766;2022-11-21T00:15:51;100788.67;;;6.74;100.00
63281;BME280;49406;51.044;3.766;2022-11-21T00:18:25;100781.67;;;6.72;100.00
63281;BME280;49406;51.044;3.766;2022-11-21T00:21:04;100783.33;;;6.69;100.00
63281;BME280;49406;51.044;3.766;2022-11-21T00:23:39;100787.30;;;6.68;100.00
63281;BME280;49406;51.044;3.766;2022-11-21T00:26:14;100787.62;;;6.67;100.00
63281;BME280;49406;51.044;3.766;2022-11-21T00:28:49;100790.94;;;6.68;100.00
63281;BME280;49406;51.044;3.766;2022-11-21T00:31:24;100796.23;;;6.71;100.00
63281;BME280;49406;51.044;3.766;2022-11-21T00:33:59;100798.77;;;6.75;100.00
63281;BME280;49406;51.044;3.766;2022-11-21T00:36:33;100791.52;;;6.77;100.00
63281;BME280;49406;51.044;3.766;2022-11-21T00:39:08;100797.29;;;6.78;100.00
63281;BME280;49406;51.044;3.766;2022-11-21T00:41:43;100797.84;;;6.80;100.00
63281;BME280;49406;51.044;3.766;2022-11-21T00:44:18;100801.54;;;6.82;100.00
63281;BME280;49406;51.044;3.766;2022-11-21T00:46:52;100799.34;;;6.86;100.00
63281;BME280;49406;51.044;3.766;2022-11-21T00:49:27;100794.29;;;6.77;100.00
63281;BME280;49406;51.044;3.766;2022-11-21T00:52:02;100798.05;;;6.82;100.00
63281;BME280;49406;51.044;3.766;2022-11-21T00:54:36;100793.39;;;6.83;100.00
63281;BME280;49406;51.044;3.766;2022-11-21T00:57:11;100784.66;;;6.81;100.00
63281;BME280;49406;51.044;3.766;2022-11-21T00:59:46;100782.53;;;6.80;100.00
63281;BME280;49406;51.044;3.766;2022-11-21T01:02:20;100781.56;;;6.74;100.00
63281;BME280;49406;51.044;3.766;2022-11-21T01:04:55;100781.61;;;6.63;100.00
63281;BME280;49406;51.044;3.766;2022-11-21T01:07:29;100788.33;;;6.45;100.00
63281;BME280;49406;51.044;3.766;2022-11-21T01:10:05;100781.23;;;6.39;100.00
63281;BME280;49406;51.044;3.766;2022-11-21T01:12:39;100780.48;;;6.29;100.00
63281;BME280;49406;51.044;3.766;2022-11-21T01:15:13;100784.11;;;6.22;100.00
63281;BME280;49406;51.044;3.766;2022-11-21T01:17:48;100780.98;;;6.14;100.00
63281;BME280;49406;51.044;3.766;2022-11-21T01:20:22;100770.24;;;6.08;100.00
63281;BME280;49406;51.044;3.766;2022-11-21T01:22:57;100763.52;;;5.97;100.00
63281;BME280;49406;51.044;3.766;2022-11-21T01:25:33;100759.39;;;5.86;100.00
63281;BME280;49406;51.044;3.766;2022-11-21T01:28:08;100759.73;;;5.86;100.00
63281;BME280;49406;51.044;3.766;2022-11-21T01:30:42;100759.79;;;5.81;100.00
63281;BME280;49406;51.044;3.766;2022-11-21T01:33:17;100759.63;;;5.74;100.00
63281;BME280;49406;51.044;3.766;2022-11-21T01:35:51;100759.78;;;5.67;100.00
63281;BME280;49406;51.044;3.766;2022-11-21T01:38:26;100756.91;;;5.51;100.00
63281;BME280;49406;51.044;3.766;2022-11-21T01:40:59;100755.80;;;5.41;100.00
63281;BME280;49406;51.044;3.766;2022-11-21T01:43:34;100758.73;;;5.41;100.00
63281;BME280;49406;51.044;3.766;2022-11-21T01:46:13;100762.16;;;5.34;100.00
63281;BME280;49406;51.044;3.766;2022-11-21T01:48:52;100757.80;;;5.26;100.00
63281;BME280;49406;51.044;3.766;2022-11-21T01:51:31;100756.38;;;5.26;100.00
63281;BME280;49406;51.044;3.766;2022-11-21T01:54:09;100751.42;;;5.28;100.00
63281;BME280;49406;51.044;3.766;2022-11-21T01:56:44;100755.44;;;5.23;100.00
63281;BME280;49406;51.044;3.766;2022-11-21T01:59:19;100754.82;;;5.20;100.00
63281;BME280;49406;51.044;3.766;2022-11-21T02:01:55;100753.79;;;5.26;100.00
63281;BME280;49406;51.044;3.766;2022-11-21T02:04:33;100754.15;;;5.27;100.00
63281;BME280;49406;51.044;3.766;2022-11-21T02:07:09;100751.96;;;5.29;100.00
63281;BME280;49406;51.044;3.766;2022-11-21T02:09:46;100754.86;;;5.34;100.00
63281;BME280;49406;51.044;3.766;2022-11-21T02:12:25;100758.31;;;5.39;100.00
63281;BME280;49406;51.044;3.766;2022-11-21T02:15:02;100761.22;;;5.44;100.00
63281;BME280;49406;51.044;3.766;2022-11-21T02:17:37;100762.97;;;5.51;100.00
63281;BME280;49406;51.044;3.766;2022-11-21T02:20:13;100760.44;;;5.59;100.00
63281;BME280;49406;51.044;3.766;2022-11-21T02:22:52;100756.06;;;5.64;100.00
63281;BME280;49406;51.044;3.766;2022-11-21T02:25:32;100749.58;;;5.62;100.00
63281;BME280;49406;51.044;3.766;2022-11-21T02:28:11;100753.51;;;5.72;100.00
63281;BME280;49406;51.044;3.766;2022-11-21T02:30:47;100755.80;;;5.81;100.00
63281;BME280;49406;51.044;3.766;2022-11-21T02:33:21;100758.67;;;5.86;100.00
63281;BME280;49406;51.044;3.766;2022-11-21T02:35:58;100753.48;;;5.90;100.00
63281;BME280;49406;51.044;3.766;2022-11-21T02:38:35;100752.03;;;5.95;100.00
63281;BME280;49406;51.044;3.766;2022-11-21T02:41:14;100742.48;;;5.95;100.00
63281;BME280;49406;51.044;3.766;2022-11-21T02:44:01;100737.13;;;5.95;100.00
63281;BME280;49406;51.044;3.766;2022-11-21T02:46:48;100728.09;;;5.95;100.00
63281;BME280;49406;51.044;3.766;2022-11-21T02:49:30;100728.33;;;6.05;100.00
63281;BME280;49406;51.044;3.766;2022-11-21T02:52:05;100731.25;;;6.10;100.00
63281;BME280;49406;51.044;3.766;2022-11-21T02:54:40;100734.45;;;6.13;100.00
63281;BME280;49406;51.044;3.766;2022-11-21T02:57:15;100745.65;;;6.17;100.00
63281;BME280;49406;51.044;3.766;2022-11-21T02:59:49;100747.02;;;6.10;100.00
63281;BME280;49406;51.044;3.766;2022-11-21T03:02:24;100744.52;;;6.14;100.00
63281;BME280;49406;51.044;3.766;2022-11-21T03:04:58;100742.45;;;6.21;100.00
63281;BME280;49406;51.044;3.766;2022-11-21T03:07:33;100738.21;;;6.25;100.00
63281;BME280;49406;51.044;3.766;2022-11-21T03:10:09;100734.77;;;6.27;100.00
63281;BME280;49406;51.044;3.766;2022-11-21T03:12:44;100733.74;;;6.27;100.00
63281;BME280;49406;51.044;3.766;2022-11-21T03:15:18;100739.27;;;6.26;100.00
63281;BME280;49406;51.044;3.766;2022-11-21T03:17:53;100738.33;;;6.23;100.00
63281;BME280;49406;51.044;3.766;2022-11-21T03:20:26;100746.15;;;6.23;100.00
63281;BME280;49406;51.044;3.766;2022-11-21T03:23:01;100746.95;;;6.21;100.00
63281;BME280;49406;51.044;3.766;2022-11-21T03:25:36;100740.10;;;6.18;100.00
63281;BME280;49406;51.044;3.766;2022-11-21T03:28:10;100735.80;;;6.12;100.00
63281;BME280;49406;51.044;3.766;2022-11-21T03:30:45;100734.08;;;6.05;100.00
63281;BME280;49406;51.044;3.766;2022-11-21T03:33:20;100733.45;;;6.02;100.00
63281;BME280;49406;51.044;3.766;2022-11-21T03:35:55;100729.64;;;5.95;100.00
63281;BME280;49406;51.044;3.766;2022-11-21T03:38:29;100729.60;;;5.88;100.00
63281;BME280;49406;51.044;3.766;2022-11-21T03:41:07;100729.77;;;5.81;100.00
63281;BME280;49406;51.044;3.766;2022-11-21T03:44:03;100734.05;;;5.71;100.00
63281;BME280;49406;51.044;3.766;2022-11-21T03:46:39;100735.20;;;5.62;100.00
63281;BME280;49406;51.044;3.766;2022-11-21T03:49:14;100733.58;;;5.54;100.00
63281;BME280;49406;51.044;3.766;2022-11-21T03:51:49;100727.63;;;5.45;100.00
63281;BME280;49406;51.044;3.766;2022-11-21T03:54:23;100726.33;;;5.36;100.00
63281;BME280;49406;51.044;3.766;2022-11-21T03:56:58;100727.91;;;5.30;100.00
63281;BME280;49406;51.044;3.766;2022-11-21T03:59:32;100723.90;;;5.23;100.00
63281;BME280;49406;51.044;3.766;2022-11-21T04:02:07;100721.10;;;5.16;100.00
63281;BME280;49406;51.044;3.766;2022-11-21T04:04:41;100718.16;;;5.10;100.00
63281;BME280;49406;51.044;3.766;2022-11-21T04:07:16;100717.98;;;5.03;100.00
63281;BME280;49406;51.044;3.766;2022-11-21T04:09:50;100713.34;;;4.99;100.00
63281;BME280;49406;51.044;3.766;2022-11-21T04:12:25;100707.81;;;4.94;100.00
63281;BME280;49406;51.044;3.766;2022-11-21T04:14:58;100710.39;;;4.87;100.00
63281;BME280;49406;51.044;3.766;2022-11-21T04:17:32;100713.92;;;4.83;100.00
63281;BME280;49406;51.044;3.766;2022-11-21T04:20:09;100711.20;;;4.79;100.00
63281;BME280;49406;51.044;3.766;2022-11-21T04:22:44;100710.75;;;4.75;100.00
63281;BME280;49406;51.044;3.766;2022-11-21T04:25:18;100715.65;;;4.71;100.00
63281;BME280;49406;51.044;3.766;2022-11-21T04:27:56;100713.29;;;4.68;100.00
63281;BME280;49406;51.044;3.766;2022-11-21T04:30:31;100708.86;;;4.65;100.00
63281;BME280;49406;51.044;3.766;2022-11-21T04:33:07;100703.08;;;4.62;100.00
63281;BME280;49406;51.044;3.766;2022-11-21T04:35:43;100698.70;;;4.61;100.00
63281;BME280;49406;51.044;3.766;2022-11-21T04:38:17;100692.10;;;4.60;100.00
63281;BME280;49406;51.044;3.766;2022-11-21T04:40:52;100694.48;;;4.58;100.00
63281;BME280;49406;51.044;3.766;2022-11-21T04:43:27;100694.29;;;4.52;100.00
63281;BME280;49406;51.044;3.766;2022-11-21T04:46:01;100691.85;;;4.45;100.00
63281;BME280;49406;51.044;3.766;2022-11-21T04:48:36;100687.08;;;4.54;100.00
63281;BME280;49406;51.044;3.766;2022-11-21T04:51:10;100686.03;;;4.60;100.00
63281;BME280;49406;51.044;3.766;2022-11-21T04:53:45;100679.60;;;4.65;100.00
63281;BME280;49406;51.044;3.766;2022-11-21T04:56:19;100676.98;;;4.70;100.00
63281;BME280;49406;51.044;3.766;2022-11-21T04:58:54;100678.73;;;4.76;100.00
63281;BME280;49406;51.044;3.766;2022-11-21T05:01:29;100679.41;;;4.82;100.00
63281;BME280;49406;51.044;3.766;2022-11-21T05:04:03;100674.89;;;4.75;100.00
63281;BME280;49406;51.044;3.766;2022-11-21T05:06:38;100675.34;;;4.79;100.00
63281;BME280;49406;51.044;3.766;2022-11-21T05:09:12;100673.45;;;4.79;100.00
63281;BME280;49406;51.044;3.766;2022-11-21T05:11:47;100671.73;;;4.79;100.00
63281;BME280;49406;51.044;3.766;2022-11-21T05:14:39;100674.06;;;4.76;100.00
63281;BME280;49406;51.044;3.766;2022-11-21T05:17:14;100671.33;;;4.71;100.00
63281;BME280;49406;51.044;3.766;2022-11-21T05:19:49;100666.67;;;4.60;100.00
63281;BME280;49406;51.044;3.766;2022-11-21T05:22:23;100663.88;;;4.48;100.00
63281;BME280;49406;51.044;3.766;2022-11-21T05:24:58;100663.08;;;4.50;100.00
63281;BME280;49406;51.044;3.766;2022-11-21T05:27:32;100658.89;;;4.49;100.00
63281;BME280;49406;51.044;3.766;2022-11-21T05:30:09;100649.73;;;4.43;100.00
63281;BME280;49406;51.044;3.766;2022-11-21T05:32:44;100646.42;;;4.37;100.00
63281;BME280;49406;51.044;3.766;2022-11-21T05:35:19;100643.16;;;4.33;100.00
63281;BME280;49406;51.044;3.766;2022-11-21T05:37:57;100640.83;;;4.18;100.00
63281;BME280;49406;51.044;3.766;2022-11-21T05:40:32;100642.42;;;4.14;100.00
63281;BME280;49406;51.044;3.766;2022-11-21T05:43:08;100644.89;;;4.15;100.00
63281;BME280;49406;51.044;3.766;2022-11-21T05:46:00;100638.41;;;4.13;100.00
63281;BME280;49406;51.044;3.766;2022-11-21T05:48:33;100632.23;;;4.09;100.00
63281;BME280;49406;51.044;3.766;2022-11-21T05:51:09;100630.73;;;4.05;100.00
63281;BME280;49406;51.044;3.766;2022-11-21T05:53:44;100630.26;;;4.02;100.00
63281;BME280;49406;51.044;3.766;2022-11-21T05:56:19;100629.23;;;3.85;100.00
63281;BME280;49406;51.044;3.766;2022-11-21T05:58:56;100627.84;;;3.79;100.00
63281;BME280;49406;51.044;3.766;2022-11-21T06:01:31;100621.88;;;3.77;100.00
63281;BME280;49406;51.044;3.766;2022-11-21T06:04:23;100618.68;;;3.74;100.00
63281;BME280;49406;51.044;3.766;2022-11-21T06:06:58;100613.80;;;3.68;100.00
63281;BME280;49406;51.044;3.766;2022-11-21T06:09:32;100611.25;;;3.58;100.00
63281;BME280;49406;51.044;3.766;2022-11-21T06:12:07;100599.16;;;3.48;100.00
63281;BME280;49406;51.044;3.766;2022-11-21T06:14:42;100597.34;;;3.51;100.00
63281;BME280;49406;51.044;3.766;2022-11-21T06:17:14;100600.38;;;3.48;100.00
63281;BME280;49406;51.044;3.766;2022-11-21T06:19:47;100598.29;;;3.42;100.00
63281;BME280;49406;51.044;3.766;2022-11-21T06:22:22;100588.50;;;3.39;100.00
63281;BME280;49406;51.044;3.766;2022-11-21T06:24:57;100581.41;;;3.39;100.00
63281;BME280;49406;51.044;3.766;2022-11-21T06:27:31;100579.95;;;3.26;100.00
63281;BME280;49406;51.044;3.766;2022-11-21T06:30:07;100571.15;;;3.21;100.00
63281;BME280;49406;51.044;3.766;2022-11-21T06:32:42;100569.50;;;3.23;100.00
63281;BME280;49406;51.044;3.766;2022-11-21T06:35:17;100564.95;;;3.21;100.00
63281;BME280;49406;51.044;3.766;2022-11-21T06:37:51;100558.39;;;3.17;100.00
63281;BME280;49406;51.044;3.766;2022-11-21T06:40:26;100554.17;;;3.14;100.00
63281;BME280;49406;51.044;3.766;2022-11-21T06:43:00;100548.05;;;3.12;100.00
63281;BME280;49406;51.044;3.766;2022-11-21T06:45:35;100542.97;;;3.05;100.00
63281;BME280;49406;51.044;3.766;2022-11-21T06:48:10;100542.58;;;2.99;100.00
63281;BME280;49406;51.044;3.766;2022-11-21T06:50:44;100534.27;;;3.03;100.00
63281;BME280;49406;51.044;3.766;2022-11-21T06:53:19;100532.32;;;3.02;100.00
63281;BME280;49406;51.044;3.766;2022-11-21T06:55:56;100530.39;;;3.01;100.00
63281;BME280;49406;51.044;3.766;2022-11-21T06:58:31;100530.91;;;2.95;100.00
63281;BME280;49406;51.044;3.766;2022-11-21T07:01:07;100530.04;;;2.80;100.00
63281;BME280;49406;51.044;3.766;2022-11-21T07:03:40;100532.04;;;2.83;100.00
63281;BME280;49406;51.044;3.766;2022-11-21T07:06:15;100535.01;;;2.84;100.00
63281;BME280;49406;51.044;3.766;2022-11-21T07:08:52;100532.52;;;2.86;100.00
63281;BME280;49406;51.044;3.766;2022-11-21T07:11:27;100530.14;;;2.88;100.00
63281;BME280;49406;51.044;3.766;2022-11-21T07:14:02;100532.13;;;2.91;100.00
63281;BME280;49406;51.044;3.766;2022-11-21T07:16:36;100530.27;;;2.92;100.00
63281;BME280;49406;51.044;3.766;2022-11-21T07:19:11;100530.02;;;2.90;100.00
63281;BME280;49406;51.044;3.766;2022-11-21T07:21:46;100530.55;;;2.85;100.00
63281;BME280;49406;51.044;3.766;2022-11-21T07:24:20;100527.17;;;2.92;100.00
63281;BME280;49406;51.044;3.766;2022-11-21T07:26:55;100523.92;;;2.99;100.00
63281;BME280;49406;51.044;3.766;2022-11-21T07:29:30;100516.41;;;3.01;100.00
63281;BME280;49406;51.044;3.766;2022-11-21T07:32:04;100511.02;;;3.05;100.00
63281;BME280;49406;51.044;3.766;2022-11-21T07:34:39;100513.44;;;3.00;100.00
63281;BME280;49406;51.044;3.766;2022-11-21T07:37:13;100514.52;;;3.01;100.00
63281;BME280;49406;51.044;3.766;2022-11-21T07:39:48;100508.24;;;3.10;100.00
63281;BME280;49406;51.044;3.766;2022-11-21T07:42:22;100500.08;;;3.14;100.00
63281;BME280;49406;51.044;3.766;2022-11-21T07:44:57;100506.20;;;3.21;100.00
63281;BME280;49406;51.044;3.766;2022-11-21T07:47:30;100498.85;;;3.23;100.00
63281;BME280;49406;51.044;3.766;2022-11-21T07:50:07;100489.91;;;3.20;100.00
63281;BME280;49406;51.044;3.766;2022-11-21T07:52:42;100487.77;;;3.34;100.00
63281;BME280;49406;51.044;3.766;2022-11-21T07:55:15;100485.09;;;3.42;100.00
63281;BME280;49406;51.044;3.766;2022-11-21T07:57:51;100479.70;;;3.46;100.00
63281;BME280;49406;51.044;3.766;2022-11-21T08:00:31;100473.00;;;3.42;100.00
63281;BME280;49406;51.044;3.766;2022-11-21T08:03:05;100465.55;;;3.53;100.00
63281;BME280;49406;51.044;3.766;2022-11-21T08:05:41;100463.41;;;3.62;100.00
63281;BME280;49406;51.044;3.766;2022-11-21T08:08:16;100462.36;;;3.68;100.00
63281;BME280;49406;51.044;3.766;2022-11-21T08:10:50;100463.95;;;3.69;100.00
63281;BME280;49406;51.044;3.766;2022-11-21T08:13:23;100459.98;;;3.63;100.00
63281;BME280;49406;51.044;3.766;2022-11-21T08:15:58;100456.48;;;3.73;100.00
63281;BME280;49406;51.044;3.766;2022-11-21T08:18:33;100448.36;;;3.79;100.00
63281;BME280;49406;51.044;3.766;2022-11-21T08:21:07;100438.88;;;3.86;100.00
63281;BME280;49406;51.044;3.766;2022-11-21T08:23:42;100423.98;;;3.85;100.00
63281;BME280;49406;51.044;3.766;2022-11-21T08:26:17;100414.98;;;3.85;100.00
63281;BME280;49406;51.044;3.766;2022-11-21T08:28:52;100423.48;;;3.99;100.00
63281;BME280;49406;51.044;3.766;2022-11-21T08:31:26;100417.16;;;4.07;100.00
63281;BME280;49406;51.044;3.766;2022-11-21T08:34:01;100414.41;;;4.14;100.00
63281;BME280;49406;51.044;3.766;2022-11-21T08:36:35;100411.52;;;4.10;100.00
63281;BME280;49406;51.044;3.766;2022-11-21T08:39:10;100410.09;;;4.21;100.00
63281;BME280;49406;51.044;3.766;2022-11-21T08:41:45;100404.05;;;4.34;100.00
63281;BME280;49406;51.044;3.766;2022-11-21T08:44:37;100393.33;;;4.41;100.00
63281;BME280;49406;51.044;3.766;2022-11-21T08:47:12;100387.13;;;4.42;100.00
63281;BME280;49406;51.044;3.766;2022-11-21T08:49:47;100384.57;;;4.58;100.00
63281;BME280;49406;51.044;3.766;2022-11-21T08:52:22;100387.89;;;4.73;100.00
63281;BME280;49406;51.044;3.766;2022-11-21T08:54:57;100379.25;;;4.81;100.00
63281;BME280;49406;51.044;3.766;2022-11-21T08:57:35;100372.08;;;4.78;100.00
63281;BME280;49406;51.044;3.766;2022-11-21T09:00:12;100368.20;;;4.97;100.00
63281;BME280;49406;51.044;3.766;2022-11-21T09:02:47;100364.06;;;5.13;100.00
63281;BME280;49406;51.044;3.766;2022-11-21T09:05:22;100365.48;;;5.14;100.00
63281;BME280;49406;51.044;3.766;2022-11-21T09:07:59;100361.32;;;5.23;100.00
63281;BME280;49406;51.044;3.766;2022-11-21T09:10:34;100354.95;;;5.41;100.00
63281;BME280;49406;51.044;3.766;2022-11-21T09:13:09;100354.33;;;5.52;100.00
63281;BME280;49406;51.044;3.766;2022-11-21T09:15:44;100358.39;;;5.55;100.00
63281;BME280;49406;51.044;3.766;2022-11-21T09:18:34;100347.52;;;5.66;100.00
63281;BME280;49406;51.044;3.766;2022-11-21T09:21:09;100344.68;;;5.81;100.00
63281;BME280;49406;51.044;3.766;2022-11-21T09:23:47;100333.80;;;5.91;100.00
63281;BME280;49406;51.044;3.766;2022-11-21T09:26:21;100333.31;;;5.92;100.00
63281;BME280;49406;51.044;3.766;2022-11-21T09:28:56;100329.30;;;6.10;100.00
63281;BME280;49406;51.044;3.766;2022-11-21T09:31:31;100323.08;;;6.31;100.00
63281;BME280;49406;51.044;3.766;2022-11-21T09:34:05;100319.98;;;6.43;100.00
63281;BME280;49406;51.044;3.766;2022-11-21T09:36:40;100315.29;;;6.54;100.00
63281;BME280;49406;51.044;3.766;2022-11-21T09:39:15;100310.27;;;6.77;100.00
63281;BME280;49406;51.044;3.766;2022-11-21T09:41:57;100308.08;;;6.94;100.00
63281;BME280;49406;51.044;3.766;2022-11-21T09:44:41;100305.89;;;6.99;100.00
63281;BME280;49406;51.044;3.766;2022-11-21T09:47:25;100301.19;;;7.11;100.00
63281;BME280;49406;51.044;3.766;2022-11-21T09:50:02;100293.63;;;7.18;100.00
63281;BME280;49406;51.044;3.766;2022-11-21T09:52:41;100292.60;;;7.20;100.00
63281;BME280;49406;51.044;3.766;2022-11-21T09:55:23;100288.51;;;7.11;100.00
63281;BME280;49406;51.044;3.766;2022-11-21T09:58:03;100294.16;;;7.19;100.00
63281;BME280;49406;51.044;3.766;2022-11-21T10:00:38;100289.21;;;7.25;100.00
63281;BME280;49406;51.044;3.766;2022-11-21T10:03:13;100285.40;;;7.25;100.00
63281;BME280;49406;51.044;3.766;2022-11-21T10:05:50;100279.73;;;7.19;100.00
63281;BME280;49406;51.044;3.766;2022-11-21T10:08:39;100277.45;;;7.31;100.00
63281;BME280;49406;51.044;3.766;2022-11-21T10:11:22;100279.54;;;7.31;100.00
63281;BME280;49406;51.044;3.766;2022-11-21T10:14:08;100274.30;;;7.30;100.00
63281;BME280;49406;51.044;3.766;2022-11-21T10:16:50;100265.92;;;7.39;100.00
63281;BME280;49406;51.044;3.766;2022-11-21T10:19:42;100252.73;;;7.40;100.00
63281;BME280;49406;51.044;3.766;2022-11-21T10:22:30;100248.44;;;7.33;100.00
63281;BME280;49406;51.044;3.766;2022-11-21T10:25:13;100243.64;;;7.39;100.00
63281;BME280;49406;51.044;3.766;2022-11-21T10:27:51;100236.38;;;7.41;100.00
63281;BME280;49406;51.044;3.766;2022-11-21T10:30:27;100237.73;;;7.39;100.00
63281;BME280;49406;51.044;3.766;2022-11-21T10:33:04;100229.64;;;7.46;100.00
63281;BME280;49406;51.044;3.766;2022-11-21T10:35:47;100214.94;;;7.55;100.00
63281;BME280;49406;51.044;3.766;2022-11-21T10:38:25;100199.79;;;7.53;100.00
63281;BME280;49406;51.044;3.766;2022-11-21T10:41:04;100191.71;;;7.61;100.00
63281;BME280;49406;51.044;3.766;2022-11-21T10:43:44;100196.73;;;7.59;100.00
63281;BME280;49406;51.044;3.766;2022-11-21T10:46:40;100181.84;;;7.68;100.00
63281;BME280;49406;51.044;3.766;2022-11-21T10:49:29;100173.05;;;7.74;100.00
63281;BME280;49406;51.044;3.766;2022-11-21T10:52:09;100164.16;;;7.73;100.00
63281;BME280;49406;51.044;3.766;2022-11-21T10:55:03;100157.31;;;7.66;100.00
63281;BME280;49406;51.044;3.766;2022-11-21T10:57:44;100148.95;;;7.67;100.00
63281;BME280;49406;51.044;3.766;2022-11-21T11:00:22;100148.70;;;7.75;100.00
63281;BME280;49406;51.044;3.766;2022-11-21T11:03:03;100135.79;;;7.72;100.00
63281;BME280;49406;51.044;3.766;2022-11-21T11:05:38;100130.61;;;7.78;100.00
63281;BME280;49406;51.044;3.766;2022-11-21T11:08:14;100114.65;;;7.85;100.00
63281;BME280;49406;51.044;3.766;2022-11-21T11:11:02;100108.53;;;7.78;100.00
63281;BME280;49406;51.044;3.766;2022-11-21T11:13:53;100106.57;;;7.74;100.00
63281;BME280;49406;51.044;3.766;2022-11-21T11:16:27;100099.85;;;7.82;100.00
63281;BME280;49406;51.044;3.766;2022-11-21T11:19:05;100086.95;;;7.79;100.00
63281;BME280;49406;51.044;3.766;2022-11-21T11:21:49;100077.63;;;7.67;100.00
63281;BME280;49406;51.044;3.766;2022-11-21T11:24:25;100086.05;;;7.74;100.00
63281;BME280;49406;51.044;3.766;2022-11-21T11:27:01;100078.27;;;7.83;100.00
63281;BME280;49406;51.044;3.766;2022-11-21T11:29:49;100069.94;;;7.86;100.00
63281;BME280;49406;51.044;3.766;2022-11-21T11:32:24;100070.86;;;7.90;100.00
63281;BME280;49406;51.044;3.766;2022-11-21T11:35:00;100058.25;;;7.80;100.00
63281;BME280;49406;51.044;3.766;2022-11-21T11:37:39;100059.30;;;7.83;100.00
63281;BME280;49406;51.044;3.766;2022-11-21T11:40:20;100053.41;;;7.88;100.00
63281;BME280;49406;51.044;3.766;2022-11-21T11:43:15;100052.35;;;7.84;100.00
63281;BME280;49406;51.044;3.766;2022-11-21T11:46:23;100046.05;;;7.76;100.00
63281;BME280;49406;51.044;3.766;2022-11-21T11:49:30;100036.17;;;7.83;100.00
63281;BME280;49406;51.044;3.766;2022-11-21T11:52:30;100032.13;;;7.77;100.00
63281;BME280;49406;51.044;3.766;2022-11-21T11:55:06;100028.42;;;7.69;100.00
63281;BME280;49406;51.044;3.766;2022-11-21T11:57:47;100026.23;;;7.78;100.00
63281;BME280;49406;51.044;3.766;2022-11-21T12:00:34;100024.68;;;7.83;100.00
63281;BME280;49406;51.044;3.766;2022-11-21T12:03:15;100021.35;;;7.79;100.00
63281;BME280;49406;51.044;3.766;2022-11-21T12:06:01;100009.70;;;7.78;100.00
63281;BME280;49406;51.044;3.766;2022-11-21T12:08:43;100004.35;;;7.89;100.00
63281;BME280;49406;51.044;3.766;2022-11-21T12:11:25;99995.52;;;7.92;100.00
63281;BME280;49406;51.044;3.766;2022-11-21T12:14:48;99988.87;;;7.89;100.00
63281;BME280;49406;51.044;3.766;2022-11-21T12:17:46;99980.39;;;7.96;100.00
63281;BME280;49406;51.044;3.766;2022-11-21T12:20:32;99974.85;;;8.06;100.00
63281;BME280;49406;51.044;3.766;2022-11-21T12:23:10;99966.71;;;8.13;100.00
63281;BME280;49406;51.044;3.766;2022-11-21T12:25:51;99959.92;;;8.16;100.00
63281;BME280;49406;51.044;3.766;2022-11-21T12:28:37;99950.69;;;8.09;100.00
63281;BME280;49406;51.044;3.766;2022-11-21T12:31:21;99940.45;;;8.22;100.00
63281;BME280;49406;51.044;3.766;2022-11-21T12:36:59;99927.90;;;8.20;100.00
63281;BME280;49406;51.044;3.766;2022-11-21T12:39:56;99920.27;;;8.27;100.00
63281;BME280;49406;51.044;3.766;2022-11-21T12:42:43;99914.19;;;8.30;100.00
63281;BME280;49406;51.044;3.766;2022-11-21T12:45:24;99906.52;;;8.27;100.00
63281;BME280;49406;51.044;3.766;2022-11-21T12:48:13;99896.25;;;8.29;100.00
63281;BME280;49406;51.044;3.766;2022-11-21T12:51:29;99890.38;;;8.40;100.00
63281;BME280;49406;51.044;3.766;2022-11-21T12:54:45;99878.20;;;8.42;100.00
63281;BME280;49406;51.044;3.766;2022-11-21T12:57:36;99864.27;;;8.46;100.00
63281;BME280;49406;51.044;3.766;2022-11-21T13:00:17;99852.06;;;8.38;100.00
63281;BME280;49406;51.044;3.766;2022-11-21T13:03:08;99849.12;;;8.45;100.00
63281;BME280;49406;51.044;3.766;2022-11-21T13:05:50;99832.39;;;8.51;100.00
63281;BME280;49406;51.044;3.766;2022-11-21T13:08:25;99833.79;;;8.55;100.00
63281;BME280;49406;51.044;3.766;2022-11-21T13:11:08;99830.81;;;8.50;100.00
63281;BME280;49406;51.044;3.766;2022-11-21T13:14:08;99824.73;;;8.57;100.00
63281;BME280;49406;51.044;3.766;2022-11-21T13:16:50;99823.86;;;8.63;100.00
63281;BME280;49406;51.044;3.766;2022-11-21T13:19:34;99816.20;;;8.58;100.00
63281;BME280;49406;51.044;3.766;2022-11-21T13:25:41;99804.70;;;8.62;100.00
63281;BME280;49406;51.044;3.766;2022-11-21T13:28:33;99792.15;;;8.63;100.00
63281;BME280;49406;51.044;3.766;2022-11-21T13:31:28;99780.83;;;8.56;100.00
63281;BME280;49406;51.044;3.766;2022-11-21T13:34:04;99762.36;;;8.55;100.00
63281;BME280;49406;51.044;3.766;2022-11-21T13:36:38;99756.80;;;8.58;100.00
63281;BME280;49406;51.044;3.766;2022-11-21T13:39:34;99744.77;;;8.61;100.00
63281;BME280;49406;51.044;3.766;2022-11-21T13:42:13;99729.60;;;8.64;100.00
63281;BME280;49406;51.044;3.766;2022-11-21T13:45:37;99707.29;;;8.66;100.00
63281;BME280;49406;51.044;3.766;2022-11-21T13:51:33;99700.34;;;8.60;100.00
63281;BME280;49406;51.044;3.766;2022-11-21T13:57:18;99680.80;;;8.70;100.00
63281;BME280;49406;51.044;3.766;2022-11-21T14:00:09;99671.39;;;8.72;100.00